Pagina principale
METAR-TAF:

METAR-TAF

Aeroporti :

Tabarka, Tunisia

latitudine: 36-57N, longitudine: 008-45E, altezza: 20 m

Osservazione

Il bollettino è stato emesso 1 ora e 6 minuti fa, alle 03:00 UTC
Vento 1 kt da direzioni variabili
Temperature 11°C
Umidità 76%
Pressione 1006 hPa

METAR: DTKA 140300Z AUTO VRB01KT /// 11/07 Q1006

Ora: 05:06 (04:06 UTC)

Previsione

Il bollettino è stato emesso 4 ore e 6 minuti fa, alle 00:00 UTC
Previsione valida dal 14 alle 01 UTC al 14 alle 10 UTC
Vento 4 kt da est/nord-est
Visibilità 10 km o più
Nubi sparse ad un'altezza di 2000 ft
Evoluzione graduale
tra 14 e 00 UTC
Vento 5 kt da sud/sud-ovest

TAF: DTKA 140000Z 1401/1410 07004KT 9999 SCT020 BECMG 14001/1403 20005KT

Osservazioni e previsioni meteorologiche di più di 4000 aeroporti (messaggi METAR e TAF).

Le stazioni disponibili sono rappresentate dai dischi gialli e rossi sulla carta.

Puntare il mouse per vedere il nome della stazione.

Clicca sopra per visualizzare le osservazioni e previsioni meteorologiche.

Per cambiare la mappa : fare clic sui pulsanti verdi con una croce nera per ingrandire, il pulsante verde con un trattino per diminuire, o sulla freccia verde per le mappe adiacenti.


METAR-TAF: